Enoree, South Carolina
Current Conditions -  °F | °C
As of 4:55 PM on Saturday 25 Oct 2014 (Local Time) from KSPA Reporting Station
Clear Clear  
Wind Chill: 77°   Ceiling: Unl
Heat Index: 77°   Visibility: 10mi
Dew Point: 34°   Wind: 7mph
Humidity: 21%   Direction: 250°WSW
Pressure: 29.96"   Gusts: NA
Location:  34.66°N, 81.96°W
Report Text: KSPA 252055Z AUTO 25006KT 10SM CLR 25/01 A2996 RMK AO2
Loading
Personal Weather Stations






























Interactive Weather Map
Tropical Storm Tracking
New forecast layout! Learn more

10-Day Weather Forecast

Advertisements
Track Severe Weather on mobile